createdAt,value
2022-12-03T00:02:13.515Z,94.85
2022-12-03T00:04:39.982Z,96.10
2022-12-03T00:07:06.318Z,97.55
2022-12-03T00:09:32.723Z,99.05
2022-12-03T00:11:59.178Z,93.75
2022-12-03T00:14:25.556Z,95.82
2022-12-03T00:16:51.960Z,93.82
2022-12-03T00:19:18.529Z,102.93
2022-12-03T00:21:44.861Z,95.43
2022-12-03T00:24:14.282Z,95.97
2022-12-03T00:26:40.731Z,100.90
2022-12-03T00:29:07.080Z,92.25
2022-12-03T00:31:33.595Z,98.63
2022-12-03T00:34:00.038Z,98.05
2022-12-03T00:36:26.386Z,94.32
2022-12-03T00:38:52.801Z,93.05
2022-12-03T00:41:19.156Z,89.63
2022-12-03T00:43:45.603Z,87.80
2022-12-03T00:46:13.225Z,99.93
2022-12-03T00:48:42.072Z,90.97
2022-12-03T00:51:08.424Z,94.82
2022-12-03T00:53:35.684Z,91.80
2022-12-03T00:56:02.261Z,92.13
2022-12-03T00:58:28.699Z,89.10
2022-12-03T01:00:55.067Z,94.88
2022-12-03T01:03:21.521Z,88.78
2022-12-03T01:05:50.889Z,86.82
2022-12-03T01:08:17.314Z,85.20
2022-12-03T01:10:43.725Z,88.50
2022-12-03T01:13:10.517Z,85.57
2022-12-03T01:15:36.999Z,83.28
2022-12-03T01:18:03.368Z,89.10
2022-12-03T01:20:29.857Z,87.05
2022-12-03T01:22:56.257Z,80.80
2022-12-03T01:25:22.899Z,90.10
2022-12-03T01:27:49.300Z,86.28
2022-12-03T01:30:15.704Z,86.82
2022-12-03T01:32:42.060Z,88.15
2022-12-03T01:35:08.481Z,83.13
2022-12-03T01:37:34.838Z,84.22
2022-12-03T01:40:01.250Z,79.70
2022-12-03T01:42:30.152Z,78.63
2022-12-03T01:44:57.865Z,79.35
2022-12-03T01:47:44.489Z,78.60
2022-12-03T01:50:26.467Z,75.85
2022-12-03T01:52:54.353Z,78.32
2022-12-03T01:55:21.267Z,74.07
2022-12-03T01:57:49.610Z,75.97
2022-12-03T02:00:22.399Z,69.95
2022-12-03T02:02:52.525Z,71.35
2022-12-03T02:05:20.309Z,75.40
2022-12-03T02:07:46.865Z,67.82
2022-12-03T02:10:14.677Z,72.43
2022-12-03T02:12:43.213Z,70.22
2022-12-03T02:15:10.291Z,67.63
2022-12-03T02:17:37.335Z,70.53
2022-12-03T02:20:05.308Z,72.18
2022-12-03T02:22:40.385Z,69.22
2022-12-03T02:25:18.893Z,68.18
2022-12-03T02:27:45.474Z,71.03
2022-12-03T02:30:14.014Z,69.70
2022-12-03T02:32:40.545Z,69.72
2022-12-03T02:35:12.629Z,73.32
2022-12-03T02:37:38.997Z,65.53
2022-12-03T02:40:08.714Z,65.30
2022-12-03T02:42:35.463Z,67.22
2022-12-03T02:45:06.937Z,65.80
2022-12-03T02:47:35.440Z,72.32
2022-12-03T02:50:02.287Z,69.57
2022-12-03T02:52:28.738Z,63.13
2022-12-03T02:54:55.601Z,69.63
2022-12-03T02:57:33.336Z,66.97
2022-12-03T02:59:59.810Z,68.10
2022-12-03T03:02:28.229Z,68.65
2022-12-03T03:04:55.985Z,67.05
2022-12-03T03:07:22.516Z,71.00
2022-12-03T03:09:49.076Z,64.25
2022-12-03T03:12:15.552Z,59.60
2022-12-03T03:14:41.945Z,64.05
2022-12-03T03:17:08.445Z,71.00
2022-12-03T03:19:37.486Z,65.80
2022-12-03T03:22:03.912Z,64.97
2022-12-03T03:24:30.366Z,58.95
2022-12-03T03:26:56.751Z,67.38
2022-12-03T03:29:23.213Z,66.53
2022-12-03T03:31:49.801Z,64.13
2022-12-03T03:34:16.516Z,60.97
2022-12-03T03:36:43.637Z,66.65
2022-12-03T03:39:10.086Z,72.38
2022-12-03T03:41:36.827Z,67.13
2022-12-03T03:44:04.899Z,70.60
2022-12-03T03:46:33.408Z,65.07
2022-12-03T03:48:59.957Z,64.80
2022-12-03T03:51:28.646Z,66.88
2022-12-03T03:53:55.193Z,67.50
2022-12-03T03:56:21.925Z,62.20
2022-12-03T03:58:48.421Z,66.75
2022-12-03T04:01:14.921Z,66.05
2022-12-03T04:03:41.461Z,54.72
2022-12-03T04:06:08.343Z,61.22
2022-12-03T04:08:34.844Z,62.10
2022-12-03T04:11:19.837Z,57.90
2022-12-03T04:13:46.309Z,65.03
2022-12-03T04:16:12.814Z,65.05
2022-12-03T04:18:42.756Z,66.20
2022-12-03T04:21:28.877Z,62.38
2022-12-03T04:23:55.376Z,57.72
2022-12-03T04:26:40.485Z,63.28
2022-12-03T04:29:07.363Z,61.80
2022-12-03T04:31:52.210Z,62.50
2022-12-03T04:34:37.189Z,53.93
2022-12-03T04:37:04.126Z,74.60
2022-12-03T04:39:30.464Z,63.10
2022-12-03T04:41:56.969Z,70.40
2022-12-03T04:44:38.353Z,69.03
2022-12-03T04:47:08.048Z,70.20
2022-12-03T04:49:36.664Z,69.85
2022-12-03T04:52:03.107Z,75.20
2022-12-03T04:54:29.712Z,70.00
2022-12-03T04:56:56.127Z,75.05
2022-12-03T04:59:22.696Z,70.82
2022-12-03T05:01:49.224Z,73.32
2022-12-03T05:04:15.963Z,81.40
2022-12-03T05:06:42.747Z,70.20
2022-12-03T05:09:09.501Z,80.95
2022-12-03T05:11:36.088Z,75.18
2022-12-03T05:14:02.426Z,74.55
2022-12-03T05:16:29.123Z,77.00
2022-12-03T05:18:55.572Z,73.97
2022-12-03T05:21:22.103Z,74.13
2022-12-03T05:23:48.580Z,78.18
2022-12-03T05:26:15.069Z,77.20
2022-12-03T05:28:41.475Z,72.30
2022-12-03T05:31:23.347Z,81.00
2022-12-03T05:33:49.968Z,76.80
2022-12-03T05:36:16.375Z,68.03
2022-12-03T05:38:42.753Z,70.93
2022-12-03T05:41:27.870Z,77.97
2022-12-03T05:43:54.364Z,73.15
2022-12-03T05:46:20.970Z,70.70
2022-12-03T05:48:47.454Z,69.30
2022-12-03T05:51:13.846Z,70.65
2022-12-03T05:53:40.285Z,71.70
2022-12-03T05:56:06.958Z,69.22
2022-12-03T05:58:33.438Z,69.38
2022-12-03T06:00:59.826Z,71.43
2022-12-03T06:03:27.081Z,70.03
2022-12-03T06:05:53.529Z,70.45
2022-12-03T06:08:20.023Z,64.28
2022-12-03T06:10:46.516Z,70.53
2022-12-03T06:13:12.952Z,71.88
2022-12-03T06:15:43.727Z,72.10
2022-12-03T06:18:10.489Z,63.10
2022-12-03T06:20:36.931Z,68.82
2022-12-03T06:23:03.444Z,75.63
2022-12-03T06:25:29.854Z,65.95
2022-12-03T06:27:56.350Z,69.63
2022-12-03T06:30:22.784Z,69.18
2022-12-03T06:32:49.166Z,67.13
2022-12-03T06:35:15.579Z,73.97
2022-12-03T06:37:42.023Z,75.32
2022-12-03T06:40:13.670Z,71.65
2022-12-03T06:46:12.332Z,68.30
2022-12-03T06:48:47.677Z,75.15
2022-12-03T06:53:40.356Z,74.78
2022-12-03T06:56:06.900Z,70.03
2022-12-03T06:58:33.312Z,70.95
2022-12-03T07:00:59.786Z,67.82
2022-12-03T07:03:29.483Z,67.57
2022-12-03T07:05:55.907Z,67.43
2022-12-03T07:08:22.270Z,66.78
2022-12-03T07:10:48.646Z,72.65
2022-12-03T07:13:14.992Z,68.68
2022-12-03T07:15:41.464Z,75.35
2022-12-03T07:18:08.067Z,74.50
2022-12-03T07:20:34.495Z,78.40
2022-12-03T07:23:00.829Z,64.55
2022-12-03T07:25:27.162Z,67.57
2022-12-03T07:27:53.514Z,73.22
2022-12-03T07:30:19.942Z,77.63
2022-12-03T07:32:46.386Z,73.82
2022-12-03T07:35:15.163Z,66.57
2022-12-03T07:37:41.501Z,62.95
2022-12-03T07:40:08.419Z,63.67
2022-12-03T07:42:34.735Z,68.72
2022-12-03T07:45:01.183Z,65.00
2022-12-03T07:47:27.569Z,65.20
2022-12-03T07:49:53.931Z,61.10
2022-12-03T07:52:20.303Z,63.58
2022-12-03T07:54:46.731Z,59.83
2022-12-03T07:57:13.070Z,62.70
2022-12-03T07:59:39.479Z,59.60
2022-12-03T08:02:06.563Z,61.20
2022-12-03T08:04:32.965Z,58.78
2022-12-03T08:06:59.330Z,63.10
2022-12-03T08:09:26.508Z,68.20
2022-12-03T08:11:53.557Z,68.32
2022-12-03T08:14:20.872Z,66.90
2022-12-03T08:16:47.853Z,64.22
2022-12-03T08:19:15.264Z,64.65
2022-12-03T08:21:42.074Z,79.25
2022-12-03T08:24:13.077Z,65.57
2022-12-03T08:26:39.485Z,71.72
2022-12-03T08:29:10.123Z,65.53
2022-12-03T08:31:36.634Z,68.15
2022-12-03T08:34:22.865Z,73.53
2022-12-03T08:36:59.605Z,72.32
2022-12-03T08:39:35.779Z,64.32
2022-12-03T08:42:24.000Z,79.03
2022-12-03T08:44:50.349Z,68.55
2022-12-03T08:47:20.138Z,72.60
2022-12-03T08:50:09.820Z,73.72
2022-12-03T08:52:36.202Z,78.50
2022-12-03T08:55:21.367Z,67.22
2022-12-03T08:57:47.731Z,72.53
2022-12-03T09:00:17.280Z,73.65
2022-12-03T09:02:49.335Z,79.18
2022-12-03T09:05:41.799Z,73.53
2022-12-03T09:08:08.318Z,74.85
2022-12-03T09:10:34.711Z,70.05
2022-12-03T09:13:01.059Z,69.57
2022-12-03T09:15:28.408Z,75.38
2022-12-03T09:17:54.734Z,72.65
2022-12-03T09:20:21.134Z,68.55
2022-12-03T09:22:47.531Z,73.32
2022-12-03T09:25:13.898Z,68.05
2022-12-03T09:27:40.200Z,69.80
2022-12-03T09:30:06.833Z,75.15
2022-12-03T09:32:33.275Z,74.57
2022-12-03T09:34:59.657Z,67.18
2022-12-03T09:37:26.032Z,75.38
2022-12-03T09:39:52.435Z,71.75
2022-12-03T09:42:18.829Z,74.57
2022-12-03T09:44:45.341Z,75.38
2022-12-03T09:47:11.806Z,72.63
2022-12-03T09:49:38.560Z,70.90
2022-12-03T09:52:05.814Z,63.90
2022-12-03T09:54:32.754Z,67.07
2022-12-03T09:57:00.863Z,63.53
2022-12-03T09:59:30.695Z,62.35
2022-12-03T10:01:57.435Z,62.08
2022-12-03T10:04:24.358Z,66.90
2022-12-03T10:06:51.258Z,65.38
2022-12-03T10:09:22.237Z,66.93
2022-12-03T10:11:48.662Z,70.30
2022-12-03T10:14:17.176Z,70.00
2022-12-03T10:16:43.824Z,68.13
2022-12-03T10:19:17.345Z,64.90
2022-12-03T10:21:43.774Z,66.97
2022-12-03T10:24:16.275Z,71.05
2022-12-03T10:26:43.660Z,62.80
2022-12-03T10:29:14.319Z,67.68
2022-12-03T10:31:44.147Z,77.65
2022-12-03T10:34:11.711Z,68.88
2022-12-03T10:36:38.277Z,68.82
2022-12-03T10:39:09.509Z,70.88
2022-12-03T10:41:36.401Z,72.32
2022-12-03T10:44:14.674Z,72.15
2022-12-03T10:46:41.305Z,65.28
2022-12-03T10:49:09.238Z,75.80
2022-12-03T10:51:35.684Z,61.85
2022-12-03T10:54:02.586Z,67.35
2022-12-03T10:56:29.216Z,65.93
2022-12-03T10:58:55.750Z,60.83
2022-12-03T11:01:23.044Z,64.45
2022-12-03T11:03:49.715Z,65.20
2022-12-03T11:06:20.514Z,61.58
2022-12-03T11:08:54.647Z,65.28
2022-12-03T11:11:24.526Z,57.35
2022-12-03T11:13:54.561Z,62.22
2022-12-03T11:16:39.565Z,61.78
2022-12-03T11:19:14.279Z,62.30
2022-12-03T11:21:59.056Z,62.58
2022-12-03T11:24:25.537Z,58.47
2022-12-03T11:26:52.134Z,59.75
2022-12-03T11:29:38.951Z,54.10
2022-12-03T11:32:06.801Z,64.28
2022-12-03T11:34:33.187Z,57.97
2022-12-03T11:37:11.868Z,61.22
2022-12-03T11:39:50.723Z,60.35
2022-12-03T11:42:26.663Z,60.78
2022-12-03T11:45:11.174Z,57.38
2022-12-03T11:47:40.662Z,56.88
2022-12-03T11:50:16.376Z,57.80
2022-12-03T11:52:44.220Z,57.38
2022-12-03T11:55:18.214Z,57.97
2022-12-03T11:57:45.181Z,60.22
2022-12-03T12:00:22.057Z,63.03
2022-12-03T12:02:52.172Z,62.17
2022-12-03T12:05:29.074Z,64.10
2022-12-03T12:07:59.224Z,68.88
2022-12-03T12:17:23.384Z,63.08
2022-12-03T12:19:54.417Z,70.40
2022-12-03T12:29:07.002Z,63.95
2022-12-03T12:31:33.570Z,67.10
2022-12-03T12:34:00.275Z,68.95
2022-12-03T12:37:00.976Z,71.85
2022-12-03T12:40:20.743Z,64.15
2022-12-03T12:43:26.377Z,71.88
2022-12-03T12:46:50.175Z,73.82
2022-12-03T12:49:21.715Z,65.00
2022-12-03T12:51:49.410Z,67.38
2022-12-03T12:54:17.106Z,71.97
2022-12-03T12:56:45.426Z,65.63
2022-12-03T12:59:13.576Z,72.22
2022-12-03T13:01:40.714Z,72.10
2022-12-03T13:04:12.504Z,71.70
2022-12-03T13:06:39.013Z,78.75
2022-12-03T13:09:09.004Z,72.97
2022-12-03T13:11:35.620Z,69.13
2022-12-03T13:14:14.825Z,80.07
2022-12-03T13:16:47.442Z,73.65
2022-12-03T13:19:27.468Z,75.13
2022-12-03T13:21:55.048Z,73.93
2022-12-03T13:24:39.532Z,75.63
2022-12-03T13:27:33.250Z,77.38
2022-12-03T13:30:01.055Z,75.55
2022-12-03T13:32:34.924Z,78.53
2022-12-03T13:35:06.207Z,81.22
2022-12-03T13:37:35.621Z,78.60
2022-12-03T13:40:08.364Z,85.00
2022-12-03T13:43:09.238Z,80.63
2022-12-03T13:45:37.534Z,78.65
2022-12-03T13:51:28.466Z,81.47
2022-12-03T13:53:55.205Z,79.05
2022-12-03T13:56:40.705Z,78.55
2022-12-03T14:02:33.466Z,77.85
2022-12-03T14:05:00.869Z,77.70
2022-12-03T14:07:29.806Z,82.28
2022-12-03T14:10:21.202Z,82.28
2022-12-03T14:12:47.868Z,75.85
2022-12-03T14:15:14.238Z,84.13
2022-12-03T14:17:40.599Z,78.32
2022-12-03T14:20:08.097Z,80.93
2022-12-03T14:22:37.883Z,78.35
2022-12-03T14:25:04.898Z,68.93
2022-12-03T14:27:31.363Z,83.55
2022-12-03T14:29:58.034Z,70.47
2022-12-03T14:32:24.509Z,80.13
2022-12-03T14:34:51.056Z,82.03
2022-12-03T14:37:18.084Z,74.32
2022-12-03T14:39:44.477Z,77.10
2022-12-03T14:42:13.759Z,77.38
2022-12-03T14:44:47.455Z,77.40
2022-12-03T14:47:14.363Z,70.13
2022-12-03T14:49:41.027Z,72.65
2022-12-03T14:52:11.292Z,74.43
2022-12-03T14:54:42.615Z,81.88
2022-12-03T14:57:10.123Z,79.15
2022-12-03T14:59:36.469Z,77.95
2022-12-03T15:02:02.963Z,84.65
2022-12-03T15:04:29.480Z,86.07
2022-12-03T15:06:55.896Z,81.95
2022-12-03T15:09:22.353Z,80.00
2022-12-03T15:11:48.664Z,88.38
2022-12-03T15:14:15.124Z,83.53
2022-12-03T15:16:41.600Z,80.90
2022-12-03T15:19:08.056Z,76.13
2022-12-03T15:21:35.046Z,78.80
2022-12-03T15:24:01.909Z,71.28
2022-12-03T15:26:28.382Z,73.47
2022-12-03T15:28:54.881Z,69.45
2022-12-03T15:31:21.268Z,69.88
2022-12-03T15:33:47.726Z,67.10
2022-12-03T15:36:14.242Z,67.22
2022-12-03T15:38:40.638Z,66.50
2022-12-03T15:41:24.696Z,63.78
2022-12-03T15:43:52.343Z,61.50
2022-12-03T15:46:19.468Z,73.22
2022-12-03T15:48:46.317Z,58.58
2022-12-03T15:51:12.857Z,62.50
2022-12-03T15:53:39.694Z,62.53
2022-12-03T15:56:06.349Z,57.60
2022-12-03T15:58:32.805Z,56.25
2022-12-03T16:00:59.597Z,56.67
2022-12-03T16:03:26.056Z,50.33
2022-12-03T16:05:52.467Z,54.28
2022-12-03T16:08:18.896Z,47.05
2022-12-03T16:10:45.353Z,35.20
2022-12-03T16:13:11.704Z,31.67
2022-12-03T16:15:38.121Z,32.83
2022-12-03T16:18:04.586Z,36.15
2022-12-03T16:20:30.967Z,48.50
2022-12-03T16:22:57.339Z,59.50
2022-12-03T16:25:23.705Z,58.67
2022-12-03T16:27:50.141Z,57.22
2022-12-03T16:30:16.911Z,56.67
2022-12-03T16:32:43.317Z,49.67
2022-12-03T16:35:09.656Z,46.33
2022-12-03T16:37:36.093Z,32.90
2022-12-03T16:40:02.835Z,35.38
2022-12-03T16:42:29.356Z,35.40
2022-12-03T16:45:04.638Z,43.70
2022-12-03T16:47:34.131Z,47.47
2022-12-03T16:50:04.696Z,46.55
2022-12-03T16:52:31.017Z,42.53
2022-12-03T16:54:57.564Z,38.60
2022-12-03T16:57:26.495Z,36.55
2022-12-03T16:59:55.405Z,28.90
2022-12-03T17:02:21.935Z,27.02
2022-12-03T17:04:48.290Z,25.13
2022-12-03T17:07:14.618Z,27.92
2022-12-03T17:09:41.001Z,28.42
2022-12-03T17:12:07.448Z,27.15
2022-12-03T17:14:33.759Z,26.15
2022-12-03T17:17:00.288Z,27.05
2022-12-03T17:19:26.726Z,25.48
2022-12-03T17:21:54.023Z,24.70
2022-12-03T17:24:21.388Z,26.52
2022-12-03T17:26:47.767Z,26.33
2022-12-03T17:29:14.326Z,26.00
2022-12-03T17:31:42.499Z,26.80
2022-12-03T17:34:09.328Z,29.33
2022-12-03T17:36:35.658Z,24.00
2022-12-03T17:39:02.008Z,24.20
2022-12-03T17:41:28.362Z,23.13
2022-12-03T17:43:54.702Z,25.20
2022-12-03T17:46:21.302Z,25.65
2022-12-03T17:48:47.835Z,24.58
2022-12-03T17:51:14.206Z,26.40
2022-12-03T17:53:40.516Z,24.58
2022-12-03T17:56:06.928Z,25.35
2022-12-03T17:58:33.361Z,25.30
2022-12-03T18:01:02.839Z,25.40
2022-12-03T18:03:29.934Z,24.13
2022-12-03T18:05:56.402Z,23.00
2022-12-03T18:08:22.821Z,26.55
2022-12-03T18:10:49.231Z,23.27
2022-12-03T18:13:15.645Z,23.65
2022-12-03T18:15:42.195Z,23.83
2022-12-03T18:18:08.576Z,25.40
2022-12-03T18:20:35.042Z,25.60
2022-12-03T18:23:01.798Z,27.73
2022-12-03T18:25:28.715Z,26.35
2022-12-03T18:27:55.094Z,26.23
2022-12-03T18:30:21.387Z,25.95
2022-12-03T18:32:48.018Z,29.63
2022-12-03T18:35:14.405Z,26.15
2022-12-03T18:37:43.468Z,25.38
2022-12-03T18:40:21.353Z,27.17
2022-12-03T18:42:47.751Z,23.30
2022-12-03T18:45:14.899Z,23.38
2022-12-03T18:47:41.649Z,25.92
2022-12-03T18:50:13.812Z,24.77
2022-12-03T18:52:40.322Z,22.85
2022-12-03T18:55:07.135Z,24.33
2022-12-03T18:57:33.574Z,24.38
2022-12-03T18:59:59.977Z,24.88
2022-12-03T19:03:00.664Z,25.23
2022-12-03T19:05:12.789Z,25.48
2022-12-03T19:07:39.227Z,22.58
2022-12-03T19:10:05.965Z,24.88
2022-12-03T19:12:32.731Z,26.55
2022-12-03T19:14:59.095Z,21.50
2022-12-03T19:17:27.143Z,26.23
2022-12-03T19:19:54.081Z,26.08
2022-12-03T19:22:20.969Z,25.80
2022-12-03T19:24:47.292Z,24.63
2022-12-03T19:27:13.628Z,23.95
2022-12-03T19:29:40.166Z,26.73
2022-12-03T19:32:06.636Z,21.75
2022-12-03T19:34:33.145Z,24.13
2022-12-03T19:36:59.529Z,23.92
2022-12-03T19:39:25.950Z,28.15
2022-12-03T19:41:52.368Z,28.33
2022-12-03T19:44:19.060Z,22.25
2022-12-03T19:46:45.411Z,28.67
2022-12-03T19:49:11.997Z,28.85
2022-12-03T19:51:38.430Z,25.60
2022-12-03T19:54:05.843Z,27.73
2022-12-03T19:56:32.231Z,30.35
2022-12-03T19:58:58.628Z,29.60
2022-12-03T20:01:26.885Z,30.00
2022-12-03T20:03:54.494Z,28.00
2022-12-03T20:06:23.130Z,30.45
2022-12-03T20:08:50.012Z,30.75
2022-12-03T20:11:17.984Z,29.50
2022-12-03T20:13:44.725Z,27.88
2022-12-03T20:16:14.571Z,27.45
2022-12-03T20:18:41.840Z,26.05
2022-12-03T20:21:08.847Z,27.65
2022-12-03T20:23:35.304Z,27.23
2022-12-03T20:26:01.663Z,26.92
2022-12-03T20:28:28.674Z,29.88
2022-12-03T20:30:58.707Z,28.65
2022-12-03T20:33:25.289Z,32.05
2022-12-03T20:35:53.243Z,26.38
2022-12-03T20:38:19.940Z,30.30
2022-12-03T20:40:46.393Z,28.42
2022-12-03T20:43:12.860Z,27.58
2022-12-03T20:45:39.262Z,26.60
2022-12-03T20:48:05.670Z,27.55
2022-12-03T20:50:32.037Z,25.15
2022-12-03T20:53:23.151Z,27.02
2022-12-03T20:55:44.685Z,28.23
2022-12-03T20:58:11.167Z,23.83
2022-12-03T21:00:37.500Z,27.27
2022-12-03T21:03:05.262Z,32.40
2022-12-03T21:05:31.677Z,28.40
2022-12-03T21:07:58.068Z,26.23
2022-12-03T21:10:36.635Z,32.65
2022-12-03T21:13:02.977Z,26.30
2022-12-03T21:15:29.294Z,26.15
2022-12-03T21:17:55.747Z,26.05
2022-12-03T21:20:22.176Z,27.67
2022-12-03T21:22:51.910Z,29.17
2022-12-03T21:25:18.244Z,26.08
2022-12-03T21:27:45.185Z,28.58
2022-12-03T21:30:11.738Z,30.90
2022-12-03T21:32:38.095Z,31.40
2022-12-03T21:35:04.579Z,28.73
2022-12-03T21:37:30.887Z,29.38
2022-12-03T21:39:57.409Z,33.58
2022-12-03T21:42:36.595Z,25.67
2022-12-03T21:45:04.143Z,29.30
2022-12-03T21:47:36.706Z,27.33
2022-12-03T21:50:04.083Z,29.83
2022-12-03T21:52:30.440Z,29.30
2022-12-03T21:54:56.991Z,31.50
2022-12-03T21:57:23.361Z,27.02
2022-12-03T21:59:49.722Z,28.88
2022-12-03T22:02:16.371Z,25.58
2022-12-03T22:04:45.461Z,26.02
2022-12-03T22:07:11.838Z,22.83
2022-12-03T22:09:38.285Z,23.67
2022-12-03T22:12:04.822Z,29.17
2022-12-03T22:14:31.199Z,23.17
2022-12-03T22:16:57.622Z,27.50
2022-12-03T22:19:24.432Z,24.63
2022-12-03T22:21:51.022Z,24.85
2022-12-03T22:24:18.890Z,26.40
2022-12-03T22:26:45.466Z,21.52
2022-12-03T22:29:12.272Z,23.58
2022-12-03T22:31:38.765Z,23.45
2022-12-03T22:34:05.181Z,23.40
2022-12-03T22:36:31.862Z,24.67
2022-12-03T22:38:58.199Z,20.70
2022-12-03T22:41:24.527Z,24.10
2022-12-03T22:43:51.037Z,22.27
2022-12-03T22:46:17.516Z,25.33
2022-12-03T22:48:45.165Z,23.20
2022-12-03T22:51:19.111Z,24.67
2022-12-03T22:53:45.588Z,25.42
2022-12-03T22:56:12.027Z,21.95
2022-12-03T22:58:39.128Z,22.52
2022-12-03T23:01:05.889Z,21.40
2022-12-03T23:03:32.455Z,23.02
2022-12-03T23:05:58.827Z,21.77
2022-12-03T23:08:25.175Z,25.25
2022-12-03T23:10:52.466Z,20.73
2022-12-03T23:13:19.708Z,20.92
2022-12-03T23:15:46.816Z,23.27
2022-12-03T23:18:13.489Z,20.52
2022-12-03T23:20:44.121Z,21.60
2022-12-03T23:23:10.553Z,27.20
2022-12-03T23:25:37.406Z,28.95
2022-12-03T23:28:04.176Z,22.90
2022-12-03T23:30:30.539Z,22.67
2022-12-03T23:32:57.089Z,21.05
2022-12-03T23:35:23.414Z,21.73
2022-12-03T23:37:49.838Z,20.42
2022-12-03T23:40:16.347Z,21.40
2022-12-03T23:42:42.704Z,16.98
2022-12-03T23:45:09.255Z,21.45
2022-12-03T23:47:35.693Z,22.52
2022-12-03T23:50:02.640Z,23.10
2022-12-03T23:52:29.006Z,24.17
2022-12-03T23:54:55.377Z,25.98
2022-12-03T23:57:22.094Z,27.52
2022-12-03T23:59:49.037Z,26.90
